Time;durP1;ratioP1;P1;durP2;ratioP2;P2;SDS_P1;SDS_P2;PMS_P1;PMS_P2;Temp;Humidity;BMP_temperature;BMP_pressure;BME280_temperature;BME280_humidity;BME280_pressure;Samples;Min_cycle;Max_cycle;Signal;HPM_P1;HPM_P2
2023/06/28 00:02:12;;;;;;;9.60;2.97;;;;;;;19.48;60.25;99619.91;4366809;32;20177;-90
2023/06/28 00:04:37;;;;;;;5.28;2.95;;;;;;;19.57;60.26;99616.62;4358566;32;20785;-90
2023/06/28 00:07:03;;;;;;;6.37;2.80;;;;;;;19.48;60.25;99619.06;4368945;32;20099;-90
2023/06/28 00:09:28;;;;;;;5.40;2.65;;;;;;;19.56;60.25;99620.22;4374286;32;20121;-91
2023/06/28 00:11:54;;;;;;;5.40;2.67;;;;;;;19.46;60.25;99618.34;4375431;32;20142;-90
2023/06/28 00:14:19;;;;;;;4.07;2.70;;;;;;;19.58;60.25;99615.69;4377382;32;20118;-92
2023/06/28 00:16:44;;;;;;;3.92;2.40;;;;;;;19.41;60.25;99617.81;4365506;32;20174;-91
2023/06/28 00:19:10;;;;;;;4.25;2.55;;;;;;;19.46;60.24;99623.62;4364990;32;20205;-91
2023/06/28 00:21:35;;;;;;;5.18;2.50;;;;;;;19.55;60.26;99617.69;4365544;32;20110;-91
2023/06/28 00:24:01;;;;;;;5.10;2.53;;;;;;;19.60;60.25;99613.78;4377762;32;20146;-91
2023/06/28 00:26:27;;;;;;;4.20;2.40;;;;;;;19.46;60.24;99620.97;4378193;32;20515;-91
2023/06/28 00:28:52;;;;;;;4.97;2.72;;;;;;;19.41;60.25;99612.53;4377946;32;20168;-90
2023/06/28 00:31:18;;;;;;;5.60;2.25;;;;;;;19.45;60.24;99604.28;4365687;32;20424;-91
2023/06/28 00:33:43;;;;;;;5.35;2.42;;;;;;;19.46;60.24;99610.41;4376821;32;20106;-89
2023/06/28 00:36:08;;;;;;;4.20;2.35;;;;;;;19.54;60.26;99598.38;4375355;32;20147;-91
2023/06/28 00:38:37;;;;;;;4.43;2.22;;;;;;;19.69;60.26;99611.44;4360332;32;20367;-91
2023/06/28 00:41:02;;;;;;;3.33;2.08;;;;;;;19.80;60.26;99601.78;4363264;32;20110;-91
2023/06/28 00:43:27;;;;;;;4.07;2.60;;;;;;;19.61;60.25;99604.91;4363336;32;21438;-90
2023/06/28 00:45:53;;;;;;;3.75;2.12;;;;;;;19.73;60.26;99605.00;4365511;32;20121;-91
2023/06/28 00:48:18;;;;;;;6.10;2.40;;;;;;;19.43;60.24;99614.13;4365208;32;20099;-90
2023/06/28 00:50:44;;;;;;;3.78;2.28;;;;;;;19.62;60.25;99611.03;4365161;32;20185;-90
2023/06/28 00:53:10;;;;;;;6.00;2.53;;;;;;;19.51;60.25;99613.56;4377300;32;20132;-90
2023/06/28 00:55:35;;;;;;;6.37;3.55;;;;;;;19.25;60.24;99610.97;4371578;32;20473;-91
2023/06/28 00:58:01;;;;;;;4.35;2.58;;;;;;;19.10;60.23;99603.25;4377170;32;20194;-91
2023/06/28 01:00:26;;;;;;;6.03;2.50;;;;;;;19.25;60.24;99616.25;4367060;32;20467;-91
2023/06/28 01:02:52;;;;;;;4.32;2.72;;;;;;;19.31;60.24;99610.53;4367071;32;20152;-91
2023/06/28 01:05:19;;;;;;;6.20;2.70;;;;;;;19.37;60.24;99613.69;4361712;32;20111;-90
2023/06/28 01:07:45;;;;;;;5.97;3.00;;;;;;;19.14;60.23;99613.50;4378172;32;20906;-91
2023/06/28 01:10:10;;;;;;;5.60;3.25;;;;;;;19.17;60.23;99615.94;4360868;32;20164;-90
2023/06/28 01:12:36;;;;;;;7.05;2.55;;;;;;;19.09;60.23;99618.25;4365386;32;20156;-91
2023/06/28 01:15:03;;;;;;;4.75;2.70;;;;;;;18.94;60.22;99614.91;4367251;32;20189;-90
2023/06/28 01:17:29;;;;;;;4.07;2.40;;;;;;;19.00;60.23;99619.75;4379488;32;20083;-89
2023/06/28 01:19:54;;;;;;;7.72;2.87;;;;;;;18.97;60.22;99616.47;4367029;32;20159;-89
2023/06/28 01:22:20;;;;;;;8.05;2.87;;;;;;;18.90;60.22;99618.66;4366548;32;20105;-90
2023/06/28 01:24:46;;;;;;;6.40;3.03;;;;;;;18.94;60.22;99619.31;4392112;32;20406;-89
2023/06/28 01:27:13;;;;;;;4.00;2.58;;;;;;;18.84;60.21;99624.38;4379747;32;20489;-89
2023/06/28 01:29:39;;;;;;;3.53;2.67;;;;;;;18.70;60.21;99613.94;4380945;32;20090;-90
2023/06/28 01:32:05;;;;;;;6.47;3.08;;;;;;;18.72;60.21;99617.31;4386588;32;20092;-89
2023/06/28 01:34:30;;;;;;;7.60;3.30;;;;;;;18.75;60.21;99616.25;4381044;32;20091;-90
2023/06/28 01:36:58;;;;;;;5.82;3.45;;;;;;;19.06;60.22;99618.47;4364617;32;20098;-90
2023/06/28 01:39:23;;;;;;;3.87;2.62;;;;;;;18.94;60.22;99624.59;4364274;32;20111;-90
2023/06/28 01:41:48;;;;;;;4.40;2.67;;;;;;;19.05;60.22;99626.50;4387552;32;20118;-89
2023/06/28 01:44:14;;;;;;;5.53;2.85;;;;;;;18.80;60.22;99628.16;4366578;32;20179;-89
2023/06/28 01:46:40;;;;;;;3.95;2.80;;;;;;;18.75;60.21;99619.72;4378651;32;20421;-91
2023/06/28 01:49:06;;;;;;;5.75;2.83;;;;;;;18.71;60.21;99620.87;4372553;32;20128;-90
2023/06/28 01:51:31;;;;;;;5.95;2.67;;;;;;;18.78;60.22;99626.59;4389796;32;20172;-90
2023/06/28 01:53:56;;;;;;;4.22;3.15;;;;;;;18.79;60.21;99628.28;4366353;32;20142;-90
2023/06/28 01:56:22;;;;;;;6.65;2.72;;;;;;;18.91;60.21;99633.53;4366499;32;20213;-89
2023/06/28 01:58:47;;;;;;;5.30;2.87;;;;;;;19.04;60.22;99622.16;4372963;32;20095;-90
2023/06/28 02:01:13;;;;;;;4.60;2.72;;;;;;;18.99;60.22;99630.41;4376469;32;20177;-89
2023/06/28 02:03:38;;;;;;;5.55;2.58;;;;;;;18.99;60.22;99617.22;4364223;32;20125;-91
2023/06/28 02:06:04;;;;;;;3.53;2.40;;;;;;;18.80;60.21;99614.97;4358859;32;182403;-89
2023/06/28 02:08:29;;;;;;;7.25;2.97;;;;;;;18.96;60.22;99614.78;4400821;32;20106;-89
2023/06/28 02:10:55;;;;;;;4.97;2.78;;;;;;;19.01;60.23;99610.88;4366095;32;20150;-89
2023/06/28 02:13:20;;;;;;;5.47;2.87;;;;;;;18.92;60.23;99603.56;4378972;32;20090;-89
2023/06/28 02:15:46;;;;;;;3.58;2.42;;;;;;;18.86;60.22;99601.38;4365704;32;27421;-89
2023/06/28 02:18:14;;;;;;;4.12;2.50;;;;;;;19.01;60.23;99597.69;4360957;32;20115;-88
2023/06/28 02:20:39;;;;;;;4.85;2.75;;;;;;;18.91;60.21;99604.53;4364888;32;20122;-88
2023/06/28 02:23:05;;;;;;;2.67;2.28;;;;;;;18.92;60.21;99594.81;4391664;32;20094;-87
2023/06/28 02:25:30;;;;;;;4.50;2.65;;;;;;;18.96;60.22;99607.72;4403423;32;21543;-88
2023/06/28 02:27:55;;;;;;;5.70;2.97;;;;;;;18.49;60.20;99602.16;4385037;32;22684;-87
2023/06/28 02:30:21;;;;;;;5.93;2.62;;;;;;;18.51;60.20;99595.00;4388568;32;20430;-88
2023/06/28 02:32:46;;;;;;;5.93;2.70;;;;;;;18.48;60.20;99601.31;4391212;32;20469;-88
2023/06/28 02:35:12;;;;;;;3.97;2.75;;;;;;;18.37;60.19;99598.53;4378786;32;20394;-87
2023/06/28 02:37:37;;;;;;;4.47;2.60;;;;;;;18.39;60.19;99600.13;4378684;32;20102;-88
2023/06/28 02:40:04;;;;;;;3.97;2.72;;;;;;;18.21;60.18;99597.84;4378602;32;20470;-88
2023/06/28 02:42:30;;;;;;;5.87;2.60;;;;;;;18.16;60.18;99597.31;4366914;32;20106;-87
2023/06/28 02:44:55;;;;;;;5.80;2.55;;;;;;;18.30;60.18;99607.78;4365784;32;20103;-87
2023/06/28 02:47:20;;;;;;;3.15;2.30;;;;;;;18.30;60.18;99603.38;4403956;32;20459;-88
2023/06/28 02:49:46;;;;;;;8.75;2.60;;;;;;;18.25;60.19;99600.19;4378074;32;24273;-87
2023/06/28 02:52:11;;;;;;;3.22;2.40;;;;;;;18.34;60.19;99602.22;4378812;32;20145;-88
2023/06/28 02:54:37;;;;;;;4.57;2.35;;;;;;;18.35;60.19;99606.53;4366387;32;20129;-87
2023/06/28 02:57:03;;;;;;;4.60;2.58;;;;;;;18.47;60.20;99607.53;4367281;32;20175;-88
2023/06/28 02:59:28;;;;;;;5.32;2.30;;;;;;;18.45;60.19;99608.56;4391558;32;20074;-88
2023/06/28 03:01:53;;;;;;;6.22;2.97;;;;;;;18.28;60.18;99605.25;4387414;32;20082;-88
2023/06/28 03:04:19;;;;;;;7.62;2.53;;;;;;;18.45;60.19;99611.19;4351111;32;22216;-87
2023/06/28 03:06:49;;;;;;;7.97;2.80;;;;;;;18.50;60.20;99607.31;4391287;32;20148;-87
2023/06/28 03:09:14;;;;;;;9.07;2.80;;;;;;;18.62;60.20;99605.63;4366248;32;20406;-87
2023/06/28 03:11:39;;;;;;;3.95;2.28;;;;;;;18.52;60.20;99609.84;4391167;32;20150;-88
2023/06/28 03:14:05;;;;;;;3.03;2.40;;;;;;;18.58;60.20;99610.28;4403760;32;20182;-88
2023/06/28 03:16:30;;;;;;;6.62;2.28;;;;;;;18.68;60.20;99606.09;4366001;32;20424;-88
2023/06/28 03:18:56;;;;;;;3.42;2.40;;;;;;;18.35;60.19;99613.59;4377947;32;20378;-88
2023/06/28 03:21:21;;;;;;;4.87;2.62;;;;;;;18.29;60.18;99621.91;4378475;32;20168;-88
2023/06/28 03:23:47;;;;;;;4.07;2.72;;;;;;;18.36;60.19;99610.03;4403740;32;20158;-88
2023/06/28 03:26:12;;;;;;;4.30;2.85;;;;;;;18.35;60.19;99616.22;4378539;32;20189;-87
2023/06/28 03:28:38;;;;;;;6.93;2.28;;;;;;;18.36;60.19;99617.94;4390851;32;20411;-88
2023/06/28 03:31:03;;;;;;;5.30;2.67;;;;;;;18.39;60.20;99612.44;4378320;32;20090;-89
2023/06/28 03:33:28;;;;;;;3.22;2.45;;;;;;;18.46;60.20;99613.75;4378296;32;20170;-87
2023/06/28 03:35:54;;;;;;;10.00;2.70;;;;;;;18.45;60.19;99612.03;4392006;32;20114;-86
2023/06/28 03:38:19;;;;;;;6.70;2.40;;;;;;;18.47;60.20;99609.31;4365342;32;31621;-88
2023/06/28 03:40:45;;;;;;;4.20;2.05;;;;;;;18.76;60.21;99602.13;4377903;32;20451;-88
2023/06/28 03:43:10;;;;;;;5.57;2.17;;;;;;;18.61;60.19;99610.06;4403289;32;20098;-89
2023/06/28 03:45:36;;;;;;;5.90;2.00;;;;;;;18.77;60.21;99603.81;4377826;32;20468;-88
2023/06/28 03:48:02;;;;;;;3.47;2.10;;;;;;;18.83;60.21;99606.84;4377772;32;20540;-89
2023/06/28 03:50:27;;;;;;;5.25;2.67;;;;;;;18.68;60.20;99602.63;4390413;32;20144;-88
2023/06/28 03:52:53;;;;;;;5.25;2.90;;;;;;;18.90;60.22;99605.47;4365519;32;20217;-88
2023/06/28 03:55:18;;;;;;;8.45;2.42;;;;;;;18.97;60.22;99604.13;4377924;32;20130;-88
2023/06/28 03:57:43;;;;;;;4.75;2.58;;;;;;;18.70;60.21;99604.22;4378065;32;20114;-87
2023/06/28 04:00:11;;;;;;;4.82;2.60;;;;;;;18.79;60.21;99601.91;4377850;32;20161;-88
2023/06/28 04:02:36;;;;;;;4.85;3.00;;;;;;;18.84;60.21;99607.69;4378015;32;20146;-88
2023/06/28 04:05:03;;;;;;;8.07;3.20;;;;;;;18.72;60.20;99609.41;4378052;32;20184;-87
2023/06/28 04:07:28;;;;;;;8.05;2.78;;;;;;;18.72;60.20;99612.03;4392093;32;20106;-87
2023/06/28 04:09:54;;;;;;;7.22;2.67;;;;;;;18.93;60.22;99615.84;4390895;32;20094;-89
2023/06/28 04:12:20;;;;;;;3.97;2.12;;;;;;;18.93;60.22;99615.00;4356154;32;20118;-89
2023/06/28 04:14:46;;;;;;;4.10;2.40;;;;;;;19.01;60.23;99612.66;4390631;32;20106;-90
2023/06/28 04:17:11;;;;;;;5.75;2.60;;;;;;;18.96;60.22;99618.28;4365702;32;20173;-90
2023/06/28 04:19:37;;;;;;;4.43;2.05;;;;;;;19.32;60.24;99621.94;4366098;32;20101;-93
2023/06/28 04:22:02;;;;;;;4.30;2.33;;;;;;;19.45;60.24;99621.94;4366987;32;20110;-90
2023/06/28 04:24:28;;;;;;;5.28;2.37;;;;;;;19.45;60.24;99622.78;4372799;32;20100;-88
2023/06/28 04:26:53;;;;;;;4.68;2.33;;;;;;;19.27;60.24;99626.69;4371796;32;29909;-89
2023/06/28 04:29:19;;;;;;;5.30;2.65;;;;;;;19.44;60.24;99630.81;4349614;32;20105;-88
2023/06/28 04:31:44;;;;;;;7.15;2.50;;;;;;;19.17;60.23;99631.78;4368801;32;20090;-88
2023/06/28 04:34:09;;;;;;;4.70;2.37;;;;;;;19.31;60.24;99631.66;4351048;32;20102;-88
2023/06/28 04:36:35;;;;;;;3.75;2.05;;;;;;;19.05;60.22;99629.13;4362933;32;20154;-88
2023/06/28 04:39:03;;;;;;;4.43;2.50;;;;;;;19.21;60.23;99630.63;4362642;32;20504;-88
2023/06/28 04:41:28;;;;;;;5.70;2.30;;;;;;;19.36;60.24;99633.97;4375540;32;20447;-88
2023/06/28 04:43:55;;;;;;;4.82;2.42;;;;;;;19.59;60.25;99635.84;4362927;32;20121;-88
2023/06/28 04:46:22;;;;;;;4.28;2.45;;;;;;;19.43;60.24;99637.03;4372821;32;20530;-87
2023/06/28 04:48:48;;;;;;;3.20;2.53;;;;;;;19.32;60.24;99635.97;4377839;32;20118;-87
2023/06/28 04:51:13;;;;;;;4.07;2.03;;;;;;;19.36;60.24;99639.22;4352608;32;20152;-87
2023/06/28 04:53:38;;;;;;;7.35;2.87;;;;;;;19.50;60.25;99643.56;4364729;32;20150;-86
2023/06/28 04:56:07;;;;;;;6.10;3.08;;;;;;;19.39;60.25;99633.75;4365233;32;20102;-86
2023/06/28 04:58:33;;;;;;;8.93;2.87;;;;;;;19.23;60.24;99635.78;4377628;32;20079;-86
2023/06/28 05:00:59;;;;;;;5.10;2.37;;;;;;;19.35;60.24;99642.81;4377376;32;20459;-85
2023/06/28 05:03:26;;;;;;;8.60;3.05;;;;;;;19.69;60.25;99641.34;4364978;32;20145;-86
2023/06/28 05:05:55;;;;;;;6.28;2.80;;;;;;;19.86;60.27;99643.59;4353076;32;20452;-87
2023/06/28 05:08:21;;;;;;;12.20;3.08;;;;;;;19.78;60.27;99645.13;4371691;32;20113;-89
2023/06/28 05:10:46;;;;;;;5.65;2.55;;;;;;;19.75;60.26;99645.34;4364623;32;20131;-89
2023/06/28 05:13:12;;;;;;;6.50;2.53;;;;;;;19.79;60.27;99654.72;4377026;32;20094;-88
2023/06/28 05:15:37;;;;;;;6.10;2.10;;;;;;;19.77;60.27;99652.19;4363737;32;22141;-88
2023/06/28 05:18:03;;;;;;;4.30;2.50;;;;;;;19.73;60.26;99647.25;4390865;32;20553;-87
2023/06/28 05:20:29;;;;;;;5.72;2.67;;;;;;;19.58;60.25;99657.94;4364749;32;20144;-88
2023/06/28 05:23:11;;;;;;;4.75;2.20;;;;;;;19.75;60.26;99661.19;4364684;32;20161;-87
2023/06/28 05:25:39;;;;;;;3.97;2.22;;;;;;;19.74;60.26;99660.34;4377603;32;20110;-86
2023/06/28 05:28:05;;;;;;;5.07;2.10;;;;;;;19.78;60.27;99655.69;4377370;32;20097;-88
2023/06/28 05:30:31;;;;;;;6.30;2.55;;;;;;;19.76;60.26;99662.88;4364465;32;20513;-88
2023/06/28 05:32:58;;;;;;;6.05;2.28;;;;;;;19.70;60.26;99661.53;4365016;32;20197;-88
2023/06/28 05:35:24;;;;;;;7.57;3.12;;;;;;;19.67;60.26;99663.53;4377506;32;20160;-88
2023/06/28 05:37:49;;;;;;;6.93;2.92;;;;;;;19.75;60.26;99651.47;4352469;32;20090;-88
2023/06/28 05:40:15;;;;;;;6.70;2.70;;;;;;;19.87;60.27;99655.88;4362663;32;20091;-87
2023/06/28 05:42:40;;;;;;;7.00;3.03;;;;;;;19.86;60.27;99654.16;4383496;32;20191;-87
2023/06/28 05:45:06;;;;;;;4.32;2.62;;;;;;;19.95;60.28;99646.56;4367106;32;20150;-87
2023/06/28 05:47:31;;;;;;;5.55;2.90;;;;;;;19.89;60.27;99645.19;4367949;32;20431;-88
2023/06/28 05:49:57;;;;;;;7.15;2.65;;;;;;;19.88;60.27;99652.28;4370055;32;20094;-88
2023/06/28 05:52:22;;;;;;;6.57;2.47;;;;;;;19.88;60.27;99646.16;4400559;32;20849;-88
2023/06/28 05:54:47;;;;;;;3.22;1.80;;;;;;;19.90;60.27;99650.37;4366768;32;20106;-88
2023/06/28 05:57:13;;;;;;;5.62;2.85;;;;;;;19.89;60.27;99647.84;4378572;32;29051;-88
2023/06/28 05:59:38;;;;;;;6.93;2.55;;;;;;;19.95;60.27;99646.56;4393081;32;20082;-88
2023/06/28 06:02:04;;;;;;;3.62;1.95;;;;;;;20.09;60.28;99659.59;4366640;32;20190;-88
2023/06/28 06:04:30;;;;;;;6.15;2.17;;;;;;;20.11;60.28;99652.38;4391416;32;20121;-88
2023/06/28 06:06:55;;;;;;;5.25;2.33;;;;;;;20.13;60.27;99655.78;4354009;32;20102;-89
2023/06/28 06:09:21;;;;;;;2.80;1.67;;;;;;;19.96;60.27;99661.44;4366231;32;20086;-89
2023/06/28 06:11:46;;;;;;;4.10;2.20;;;;;;;20.08;60.27;99666.66;4363415;32;23543;-89
2023/06/28 06:14:11;;;;;;;5.00;1.67;;;;;;;20.24;60.30;99666.41;4387943;32;20121;-88
2023/06/28 06:16:37;;;;;;;2.97;1.62;;;;;;;20.22;60.28;99670.97;4383795;32;20178;-89
2023/06/28 06:19:02;;;;;;;4.18;1.90;;;;;;;20.53;60.30;99662.47;4379135;32;20341;-89
2023/06/28 06:21:28;;;;;;;3.20;1.58;;;;;;;20.53;60.30;99666.94;4378610;32;20176;-89
2023/06/28 06:23:53;;;;;;;6.07;2.17;;;;;;;20.42;60.30;99675.66;4366361;32;20404;-89
2023/06/28 06:26:19;;;;;;;2.10;1.60;;;;;;;20.56;60.31;99677.28;4378796;32;20136;-89
2023/06/28 06:28:44;;;;;;;2.10;1.25;;;;;;;20.56;60.30;99684.38;4366061;32;22289;-89
2023/06/28 06:31:13;;;;;;;3.80;1.83;;;;;;;20.41;60.30;99694.28;4366818;32;20130;-90
2023/06/28 06:33:39;;;;;;;3.95;1.77;;;;;;;20.41;60.30;99696.94;4367113;32;20117;-90
2023/06/28 06:36:05;;;;;;;4.32;1.50;;;;;;;20.33;60.29;99696.59;4393161;32;20120;-89
2023/06/28 06:38:30;;;;;;;3.85;1.80;;;;;;;20.35;60.29;99698.22;4378853;32;20110;-89
2023/06/28 06:40:55;;;;;;;6.43;1.52;;;;;;;20.40;60.30;99693.44;4379135;32;20466;-89
2023/06/28 06:43:21;;;;;;;2.97;1.40;;;;;;;20.57;60.31;99704.56;4366044;32;25806;-89
2023/06/28 06:45:46;;;;;;;2.35;1.52;;;;;;;20.48;60.31;99704.28;4353972;32;20485;-89
2023/06/28 06:48:12;;;;;;;4.32;1.40;;;;;;;20.42;60.30;99707.41;4365856;32;22202;-89
2023/06/28 06:50:37;;;;;;;3.40;1.33;;;;;;;20.19;60.28;99702.91;4378887;32;20153;-89
2023/06/28 06:53:03;;;;;;;4.70;1.55;;;;;;;20.23;60.30;99702.56;4365818;32;20131;-89
2023/06/28 06:55:28;;;;;;;3.30;1.17;;;;;;;20.21;60.28;99711.56;4379009;32;20189;-89
2023/06/28 06:57:54;;;;;;;3.55;1.00;;;;;;;20.15;60.28;99712.03;4366361;32;20113;-89
2023/06/28 07:00:19;;;;;;;4.28;0.90;;;;;;;20.04;60.28;99714.56;4391213;32;20559;-88
2023/06/28 07:02:45;;;;;;;4.18;0.90;;;;;;;20.23;60.29;99705.22;4369108;32;20152;-90
2023/06/28 07:05:10;;;;;;;2.83;1.00;;;;;;;20.47;60.30;99715.00;4366918;32;20177;-89
2023/06/28 07:07:35;;;;;;;1.62;0.80;;;;;;;20.58;60.30;99714.19;4366833;32;20126;-89
2023/06/28 07:10:01;;;;;;;5.72;1.17;;;;;;;20.52;60.29;99718.13;4379180;32;20460;-89
2023/06/28 07:12:26;;;;;;;5.28;1.05;;;;;;;20.41;60.30;99715.44;4379695;32;20521;-88
2023/06/28 07:14:52;;;;;;;3.33;0.90;;;;;;;20.29;60.29;99724.22;4380811;32;20455;-89
2023/06/28 07:17:17;;;;;;;1.73;1.33;;;;;;;20.40;60.30;99719.87;4380937;32;20473;-89
2023/06/28 07:19:43;;;;;;;2.17;1.20;;;;;;;20.46;60.29;99719.44;4368131;32;20167;-89
2023/06/28 07:22:08;;;;;;;1.33;0.77;;;;;;;20.51;60.30;99714.66;4381221;32;20376;-90
2023/06/28 07:24:33;;;;;;;4.80;0.95;;;;;;;20.42;60.30;99711.84;4354904;32;20173;-89
2023/06/28 07:26:59;;;;;;;1.87;0.90;;;;;;;20.46;60.29;99708.84;4379809;32;20091;-90
2023/06/28 07:29:24;;;;;;;0.60;0.60;;;;;;;20.48;60.31;99712.22;4354593;32;20161;-89
2023/06/28 07:31:50;;;;;;;2.25;1.58;;;;;;;20.26;60.29;99722.66;4393725;32;20185;-89
2023/06/28 07:34:15;;;;;;;2.65;0.85;;;;;;;20.31;60.29;99717.03;4379436;32;20085;-90
2023/06/28 07:36:41;;;;;;;1.02;0.80;;;;;;;20.24;60.30;99727.19;4367233;32;20134;-89
2023/06/28 07:39:09;;;;;;;2.87;0.93;;;;;;;20.29;60.29;99718.94;4379269;32;20114;-89
2023/06/28 07:41:35;;;;;;;1.87;0.85;;;;;;;20.56;60.31;99724.88;4367901;32;20105;-89
2023/06/28 07:44:00;;;;;;;1.33;0.80;;;;;;;20.54;60.30;99727.63;4367300;32;20137;-90
2023/06/28 07:46:25;;;;;;;3.80;0.98;;;;;;;20.36;60.30;99725.50;4367349;32;20101;-90
2023/06/28 07:48:51;;;;;;;2.47;0.70;;;;;;;20.33;60.29;99723.88;4366640;32;20138;-90
2023/06/28 07:51:17;;;;;;;5.57;0.93;;;;;;;20.05;60.28;99732.13;4354645;32;20120;-89
2023/06/28 07:53:42;;;;;;;2.33;0.80;;;;;;;19.94;60.28;99743.47;4379228;32;20464;-89
2023/06/28 07:56:08;;;;;;;2.70;1.33;;;;;;;20.01;60.28;99735.94;4354718;32;20121;-89
2023/06/28 07:58:36;;;;;;;5.30;1.08;;;;;;;20.18;60.29;99723.22;4391784;32;20197;-89
2023/06/28 08:01:02;;;;;;;7.37;0.90;;;;;;;20.20;60.28;99725.75;4366875;32;20111;-89
2023/06/28 08:03:27;;;;;;;4.65;1.05;;;;;;;20.23;60.30;99726.34;4393457;32;20109;-90
2023/06/28 08:05:52;;;;;;;2.12;1.20;;;;;;;20.32;60.30;99729.28;4393398;32;20095;-89
2023/06/28 08:08:18;;;;;;;2.97;0.98;;;;;;;20.26;60.29;99722.66;4392175;32;20154;-89
2023/06/28 08:10:43;;;;;;;2.80;0.80;;;;;;;20.38;60.29;99724.41;4367211;32;20391;-89
2023/06/28 08:13:09;;;;;;;4.97;0.98;;;;;;;20.36;60.30;99720.19;4379653;32;20403;-89
2023/06/28 08:15:36;;;;;;;2.50;1.02;;;;;;;20.53;60.30;99712.72;4379725;32;20150;-89
2023/06/28 08:18:02;;;;;;;4.85;1.05;;;;;;;20.61;60.31;99714.81;4393376;32;20128;-89
2023/06/28 08:20:29;;;;;;;2.90;1.65;;;;;;;20.81;60.32;99700.94;4367144;32;20136;-89
2023/06/28 08:22:54;;;;;;;3.00;2.08;;;;;;;21.05;60.34;99700.88;4379719;32;20141;-89
2023/06/28 08:25:20;;;;;;;2.90;1.15;;;;;;;21.26;60.35;99706.38;4367435;32;20094;-89
2023/06/28 08:27:45;;;;;;;6.35;0.77;;;;;;;21.09;60.33;99702.38;4379712;32;20205;-89
2023/06/28 08:30:11;;;;;;;2.10;0.98;;;;;;;21.27;60.35;99700.12;4393737;32;20094;-90
2023/06/28 08:32:37;;;;;;;4.47;1.33;;;;;;;21.17;60.33;99703.56;4367317;32;20560;-91
2023/06/28 08:35:03;;;;;;;3.03;0.85;;;;;;;21.22;60.34;99704.06;4367842;32;20095;-89
2023/06/28 08:37:30;;;;;;;3.45;1.42;;;;;;;21.06;60.33;99712.34;4368061;32;20162;-89
2023/06/28 08:39:55;;;;;;;5.43;1.52;;;;;;;20.99;60.33;99703.16;4368871;32;20114;-88
2023/06/28 08:42:21;;;;;;;4.95;1.12;;;;;;;20.96;60.33;99706.88;4396594;32;20088;-89
2023/06/28 08:44:48;;;;;;;3.25;0.90;;;;;;;21.08;60.33;99703.31;4398025;32;20428;-89
2023/06/28 08:47:14;;;;;;;3.75;1.27;;;;;;;21.21;60.35;99697.06;4353986;32;20181;-89
2023/06/28 08:49:39;;;;;;;4.70;0.90;;;;;;;21.30;60.35;99694.63;4391723;32;20472;-89
2023/06/28 08:52:05;;;;;;;2.83;1.10;;;;;;;21.23;60.34;99697.81;4365561;32;20142;-90
2023/06/28 08:54:30;;;;;;;3.37;1.20;;;;;;;21.11;60.34;99697.78;4365701;32;20091;-90
2023/06/28 08:56:58;;;;;;;1.67;1.00;;;;;;;21.32;60.34;99689.19;4365965;32;20405;-91
2023/06/28 08:59:24;;;;;;;5.20;0.80;;;;;;;21.25;60.35;99691.47;4354626;32;20125;-90
2023/06/28 09:01:54;;;;;;;2.60;1.00;;;;;;;21.34;60.35;99692.56;4366216;32;20108;-89
2023/06/28 09:04:19;;;;;;;;;;;;;;;21.44;60.35;99675.00;4379174;32;20099;-90
2023/06/28 09:06:45;;;;;;;6.35;0.90;;;;;;;21.43;60.35;99686.56;4391192;32;19982;-88
2023/06/28 09:09:10;;;;;;;2.65;0.80;;;;;;;21.54;60.36;99685.72;4352980;32;20102;-90
2023/06/28 09:11:36;;;;;;;4.12;1.15;;;;;;;21.43;60.35;99682.09;4366433;32;20183;-88
2023/06/28 09:14:01;;;;;;;2.28;1.23;;;;;;;21.38;60.35;99691.38;4366373;32;20137;-88
2023/06/28 09:16:27;;;;;;;3.40;1.12;;;;;;;21.24;60.34;99675.69;4365942;32;20122;-89
2023/06/28 09:18:52;;;;;;;4.45;0.95;;;;;;;21.28;60.34;99677.97;4354175;32;20126;-87
2023/06/28 09:21:25;;;;;;;4.12;1.15;;;;;;;21.56;60.37;99684.66;4392562;32;20143;-87
2023/06/28 09:23:50;;;;;;;4.20;1.17;;;;;;;21.73;60.37;99673.53;4368307;32;20086;-87
2023/06/28 09:26:16;;;;;;;1.62;1.00;;;;;;;21.67;60.37;99673.19;4366834;32;27889;-87
2023/06/28 09:28:41;;;;;;;2.58;0.90;;;;;;;21.69;60.37;99671.25;4355636;32;20519;-87
2023/06/28 09:31:07;;;;;;;3.25;1.20;;;;;;;21.76;60.37;99657.37;4392087;32;22308;-88
2023/06/28 09:33:32;;;;;;;2.95;1.10;;;;;;;21.76;60.37;99662.69;4367721;32;20150;-88
2023/06/28 09:35:58;;;;;;;1.98;1.00;;;;;;;21.86;60.38;99665.47;4367366;32;20681;-88
2023/06/28 09:38:24;;;;;;;4.40;0.90;;;;;;;21.97;60.39;99659.28;4394261;32;20105;-88
2023/06/28 09:40:57;;;;;;;1.33;0.88;;;;;;;22.13;60.39;99654.47;4380645;32;20113;-89
2023/06/28 09:43:23;;;;;;;3.62;1.30;;;;;;;22.15;60.39;99652.53;4367910;32;20091;-88
2023/06/28 09:45:48;;;;;;;1.98;0.70;;;;;;;22.23;60.39;99650.09;4379740;32;20516;-88
2023/06/28 09:48:13;;;;;;;2.90;0.90;;;;;;;22.31;60.40;99650.31;4380283;32;20126;-87
2023/06/28 09:50:44;;;;;;;1.33;0.93;;;;;;;22.31;60.40;99650.31;4355427;32;20142;-88
2023/06/28 09:53:13;;;;;;;2.58;0.70;;;;;;;22.48;60.42;99643.63;4367826;32;20109;-90
2023/06/28 09:55:39;;;;;;;2.05;0.80;;;;;;;22.76;60.42;99651.94;4367576;32;20133;-88
2023/06/28 09:58:09;;;;;;;3.25;0.80;;;;;;;23.06;60.44;99648.53;4393198;32;20102;-89
2023/06/28 10:00:34;;;;;;;1.17;0.70;;;;;;;23.45;60.47;99649.59;4367605;32;20085;-89
2023/06/28 10:02:59;;;;;;;3.33;0.80;;;;;;;23.39;60.45;99653.59;4368158;32;20484;-90
2023/06/28 10:05:26;;;;;;;2.28;0.50;;;;;;;23.41;60.46;99646.31;4368590;32;20117;-89
2023/06/28 10:07:54;;;;;;;1.62;0.60;;;;;;;23.54;60.46;99657.56;4369513;32;20083;-90
2023/06/28 10:10:19;;;;;;;1.00;0.90;;;;;;;23.62;60.47;99650.78;4364111;32;20062;-86
2023/06/28 10:12:45;;;;;;;1.80;0.75;;;;;;;23.45;60.46;99658.41;4368117;32;20387;-90
2023/06/28 10:15:10;;;;;;;3.60;0.75;;;;;;;23.56;60.46;99658.31;4355406;32;20360;-91
2023/06/28 10:17:36;;;;;;;1.75;0.77;;;;;;;23.49;60.46;99661.62;4367633;32;20120;-89
2023/06/28 10:20:02;;;;;;;3.55;0.62;;;;;;;23.54;60.47;99660.22;4354998;32;20197;-89
2023/06/28 10:22:29;;;;;;;2.90;0.70;;;;;;;23.57;60.46;99661.81;4367824;32;20096;-89
2023/06/28 10:24:54;;;;;;;3.75;1.20;;;;;;;23.54;60.47;99662.06;4380347;32;20114;-88
2023/06/28 10:27:20;;;;;;;6.62;1.02;;;;;;;23.15;60.44;99647.72;4365713;32;24987;-88
2023/06/28 10:29:47;;;;;;;0.95;0.62;;;;;;;23.39;60.46;99650.94;4366165;32;21049;-87
2023/06/28 10:32:13;;;;;;;2.22;0.70;;;;;;;23.56;60.47;99653.00;4367817;32;20141;-85
2023/06/28 10:34:38;;;;;;;1.75;0.70;;;;;;;23.81;60.49;99642.87;4380023;32;20130;-86
2023/06/28 10:37:04;;;;;;;1.52;0.73;;;;;;;23.93;60.49;99631.16;4380135;32;20138;-86
2023/06/28 10:39:31;;;;;;;1.40;0.90;;;;;;;24.22;60.51;99633.00;4393781;32;20095;-88
2023/06/28 10:41:57;;;;;;;1.23;0.70;;;;;;;24.38;60.51;99626.22;4355384;32;20086;-88
2023/06/28 10:44:22;;;;;;;1.58;0.65;;;;;;;24.78;60.54;99610.03;4379992;32;20120;-87
2023/06/28 10:46:50;;;;;;;1.52;0.82;;;;;;;24.90;60.53;99609.91;4379978;32;20102;-88
2023/06/28 10:49:16;;;;;;;1.27;0.60;;;;;;;25.11;60.55;99610.56;4367703;32;20162;-89
2023/06/28 10:51:44;;;;;;;2.20;0.70;;;;;;;25.19;60.55;99609.84;4392732;32;20433;-89
2023/06/28 10:54:12;;;;;;;3.42;0.80;;;;;;;25.51;60.57;99601.41;4367940;32;20503;-89
2023/06/28 10:56:43;;;;;;;2.28;0.62;;;;;;;25.70;60.58;99606.69;4380458;32;20098;-89
2023/06/28 10:59:08;;;;;;;1.55;0.90;;;;;;;25.70;60.58;99602.19;4380359;32;20091;-88
2023/06/28 11:01:35;;;;;;;2.62;0.82;;;;;;;25.40;60.56;99611.28;4392627;32;20148;-88
2023/06/28 11:04:22;;;;;;;1.52;0.82;;;;;;;25.33;60.56;99604.03;4379210;32;20102;-89
2023/06/28 11:07:03;;;;;;;1.45;0.80;;;;;;;25.25;60.56;99609.25;4367200;32;20169;-88
2023/06/28 11:09:28;;;;;;;1.90;0.77;;;;;;;25.31;60.56;99609.50;4393766;32;20163;-89
2023/06/28 11:11:58;;;;;;;2.47;0.80;;;;;;;25.33;60.57;99604.03;4367545;32;20114;-89
2023/06/28 11:14:25;;;;;;;1.60;0.60;;;;;;;25.16;60.56;99618.13;4379898;32;20407;-88
2023/06/28 11:16:52;;;;;;;3.70;0.93;;;;;;;25.44;60.56;99603.00;4367419;32;20115;-88
2023/06/28 11:19:24;;;;;;;2.12;0.60;;;;;;;25.55;60.58;99592.13;4355082;32;20094;-89
2023/06/28 11:21:57;;;;;;;1.87;0.60;;;;;;;25.50;60.56;99603.25;4367988;32;20474;-88
2023/06/28 11:24:28;;;;;;;1.52;0.68;;;;;;;25.30;60.57;99607.81;4367674;32;20145;-89
2023/06/28 11:26:54;;;;;;;1.25;0.70;;;;;;;25.37;60.57;99611.59;4393946;32;20152;-90
2023/06/28 11:29:20;;;;;;;1.42;0.62;;;;;;;25.52;60.56;99605.75;4380354;32;20090;-86